Time,TemperatureF,DewpointF,PressureIn,WindDirection,WindDirectionDegrees,WindSpeedMPH,WindSpeedGustMPH,Humidity,HourlyPrecipIn,Conditions,Clouds,dailyrainin,SoftwareType,DateUTC
2013-09-06 00:03:00,59.0,48.0,-100.00,South,170,6.0,7.0,67,0.00,,,-99.99,,2013-09-06 05:03:00,
2013-09-06 00:12:00,59.0,48.0,-100.00,South,170,6.0,7.0,67,0.00,,,-99.99,,2013-09-06 05:12:00,
2013-09-06 00:52:00,56.0,47.0,-100.00,East,90,1.0,1.0,72,0.00,,,-99.99,,2013-09-06 05:52:00,
2013-09-06 01:02:00,56.0,47.0,-100.00,East,90,1.0,1.0,72,0.00,,,-99.99,,2013-09-06 06:02:00,
2013-09-06 01:12:00,56.0,47.0,-100.00,East,90,1.0,1.0,72,0.00,,,-99.99,,2013-09-06 06:12:00,
2013-09-06 01:53:00,53.0,47.0,-100.00,ENE,60,1.0,2.0,80,0.00,,,-99.99,,2013-09-06 06:53:00,
2013-09-06 02:01:00,53.0,47.0,-100.00,ENE,60,1.0,2.0,80,0.00,,,-99.99,,2013-09-06 07:01:00,
2013-09-06 02:12:00,53.0,47.0,-100.00,ENE,60,1.0,2.0,80,0.00,,,-99.99,,2013-09-06 07:12:00,
2013-09-06 02:52:00,53.0,48.0,-100.00,South,190,0.0,3.0,84,0.00,,,-99.99,,2013-09-06 07:52:00,
2013-09-06 03:03:00,53.0,48.0,-100.00,South,190,0.0,3.0,84,0.00,,,-99.99,,2013-09-06 08:03:00,
2013-09-06 03:12:00,53.0,48.0,-100.00,South,190,0.0,3.0,84,0.00,,,-99.99,,2013-09-06 08:12:00,
2013-09-06 03:52:00,51.0,47.0,-100.00,NE,55,0.0,3.0,87,0.00,,,-99.99,,2013-09-06 08:52:00,
2013-09-06 04:02:00,51.0,47.0,-100.00,NE,55,0.0,3.0,87,0.00,,,-99.99,,2013-09-06 09:02:00,
2013-09-06 04:11:00,51.0,47.0,-100.00,NE,55,0.0,3.0,87,0.00,,,-99.99,,2013-09-06 09:11:00,
2013-09-06 04:54:00,51.0,48.0,-100.00,West,260,0.0,1.0,89,0.00,,,-99.99,,2013-09-06 09:54:00,
2013-09-06 05:03:00,51.0,48.0,-100.00,West,260,0.0,1.0,89,0.00,,,-99.99,,2013-09-06 10:03:00,
2013-09-06 05:12:00,51.0,48.0,-100.00,West,260,0.0,1.0,89,0.00,,,-99.99,,2013-09-06 10:12:00,
2013-09-06 05:53:00,52.0,48.0,-100.00,SSE,155,1.0,2.0,87,0.00,,,-99.99,,2013-09-06 10:53:00,
2013-09-06 06:03:00,52.0,48.0,-100.00,SSE,155,1.0,2.0,87,0.00,,,-99.99,,2013-09-06 11:03:00,
2013-09-06 06:12:00,52.0,48.0,-100.00,SSE,155,1.0,2.0,87,0.00,,,-99.99,,2013-09-06 11:12:00,
2013-09-06 06:52:00,53.0,49.0,-100.00,South,175,1.0,4.0,86,0.00,,,-99.99,,2013-09-06 11:52:00,
2013-09-06 07:02:00,53.0,49.0,-100.00,South,175,1.0,4.0,86,0.00,,,-99.99,,2013-09-06 12:02:00,
2013-09-06 07:12:00,53.0,49.0,-100.00,South,175,1.0,4.0,86,0.00,,,-99.99,,2013-09-06 12:12:00,
2013-09-06 07:52:00,55.0,49.0,-100.00,South,180,4.0,7.0,79,0.00,,,-99.99,,2013-09-06 12:52:00,
2013-09-06 08:02:00,55.0,49.0,-100.00,South,180,4.0,7.0,79,0.00,,,-99.99,,2013-09-06 13:02:00,
2013-09-06 08:11:00,55.0,49.0,-100.00,South,180,4.0,7.0,79,0.00,,,-99.99,,2013-09-06 13:11:00,
2013-09-06 09:52:00,66.0,51.0,-100.00,South,180,6.0,9.0,57,0.00,,,-99.99,,2013-09-06 14:52:00,
2013-09-06 10:01:00,66.0,51.0,-100.00,South,180,6.0,9.0,57,0.00,,,-99.99,,2013-09-06 15:01:00,
2013-09-06 10:11:00,66.0,51.0,-100.00,South,180,6.0,9.0,57,0.00,,,-99.99,,2013-09-06 15:11:00,
2013-09-06 10:53:00,72.0,52.0,-100.00,SSE,165,5.0,7.0,50,0.00,,,-99.99,,2013-09-06 15:53:00,
2013-09-06 11:04:00,72.0,52.0,-100.00,SSE,165,5.0,7.0,50,0.00,,,-99.99,,2013-09-06 16:04:00,
2013-09-06 11:13:00,72.0,52.0,-100.00,SSE,165,5.0,7.0,50,0.00,,,-99.99,,2013-09-06 16:13:00,
2013-09-06 11:53:00,76.0,53.0,-100.00,SW,220,6.0,11.0,44,0.00,,,-99.99,,2013-09-06 16:53:00,
2013-09-06 12:03:00,76.0,53.0,-100.00,SW,220,6.0,11.0,44,0.00,,,-99.99,,2013-09-06 17:03:00,
2013-09-06 12:13:00,76.0,53.0,-100.00,SW,220,6.0,11.0,44,0.00,,,-99.99,,2013-09-06 17:13:00,
2013-09-06 12:53:00,81.0,53.0,-100.00,South,185,6.0,12.0,38,0.00,,,-99.99,,2013-09-06 17:53:00,
2013-09-06 13:02:00,81.0,53.0,-100.00,South,185,6.0,12.0,38,0.00,,,-99.99,,2013-09-06 18:02:00,
2013-09-06 13:12:00,81.0,53.0,-100.00,South,185,6.0,12.0,38,0.00,,,-99.99,,2013-09-06 18:12:00,
2013-09-06 13:52:00,84.0,54.0,-100.00,SW,215,7.0,14.0,35,0.00,,,-99.99,,2013-09-06 18:52:00,
2013-09-06 14:02:00,84.0,54.0,-100.00,SW,215,7.0,14.0,35,0.00,,,-99.99,,2013-09-06 19:02:00,
2013-09-06 14:12:00,84.0,54.0,-100.00,SW,215,7.0,14.0,35,0.00,,,-99.99,,2013-09-06 19:12:00,
2013-09-06 14:52:00,86.0,54.0,-100.00,SSW,200,9.0,16.0,33,0.00,,,-99.99,,2013-09-06 19:52:00,
2013-09-06 15:02:00,86.0,54.0,-100.00,SSW,200,9.0,16.0,33,0.00,,,-99.99,,2013-09-06 20:02:00,
2013-09-06 15:52:00,87.0,55.0,-100.00,SW,230,7.0,16.0,33,0.00,,,-99.99,,2013-09-06 20:52:00,
2013-09-06 16:01:00,87.0,55.0,-100.00,SW,230,7.0,16.0,33,0.00,,,-99.99,,2013-09-06 21:01:00,
2013-09-06 16:12:00,87.0,55.0,-100.00,SW,230,7.0,16.0,33,0.00,,,-99.99,,2013-09-06 21:12:00,
2013-09-06 16:54:00,87.0,56.0,-100.00,SSW,195,9.0,15.0,34,0.00,,,-99.99,,2013-09-06 21:54:00,
2013-09-06 17:04:00,87.0,56.0,-100.00,SSW,195,9.0,15.0,34,0.00,,,-99.99,,2013-09-06 22:04:00,
2013-09-06 17:13:00,87.0,56.0,-100.00,SSW,195,9.0,15.0,34,0.00,,,-99.99,,2013-09-06 22:13:00,
2013-09-06 17:54:00,87.0,55.0,-100.00,SSW,200,7.0,15.0,34,0.00,,,-99.99,,2013-09-06 22:54:00,
2013-09-06 18:03:00,87.0,55.0,-100.00,SSW,200,7.0,15.0,34,0.00,,,-99.99,,2013-09-06 23:03:00,
2013-09-06 18:12:00,87.0,55.0,-100.00,SSW,200,7.0,15.0,34,0.00,,,-99.99,,2013-09-06 23:12:00,
2013-09-06 18:52:00,85.0,56.0,-100.00,SSW,200,6.0,12.0,37,0.00,,,-99.99,,2013-09-06 23:52:00,
2013-09-06 19:01:00,85.0,56.0,-100.00,SSW,200,6.0,12.0,37,0.00,,,-99.99,,2013-09-07 00:01:00,
2013-09-06 19:12:00,85.0,56.0,-100.00,SSW,200,6.0,12.0,37,0.00,,,-99.99,,2013-09-07 00:12:00,
2013-09-06 19:52:00,81.0,58.0,-100.00,SW,220,6.0,9.0,45,0.00,,,-99.99,,2013-09-07 00:52:00,
2013-09-06 20:02:00,81.0,58.0,-100.00,SW,220,6.0,9.0,45,0.00,,,-99.99,,2013-09-07 01:02:00,
2013-09-06 20:12:00,81.0,58.0,-100.00,SW,220,6.0,9.0,45,0.00,,,-99.99,,2013-09-07 01:12:00,
2013-09-06 20:54:00,78.0,60.0,-100.00,South,190,6.0,8.0,54,0.00,,,-99.99,,2013-09-07 01:54:00,
2013-09-06 21:02:00,78.0,60.0,-100.00,South,190,6.0,8.0,54,0.00,,,-99.99,,2013-09-07 02:02:00,
2013-09-06 21:12:00,78.0,60.0,-100.00,South,190,6.0,8.0,54,0.00,,,-99.99,,2013-09-07 02:12:00,
2013-09-06 21:52:00,75.0,63.0,-100.00,South,185,6.0,7.0,66,0.00,,,-99.99,,2013-09-07 02:52:00,
2013-09-06 22:02:00,75.0,63.0,-100.00,South,185,6.0,7.0,66,0.00,,,-99.99,,2013-09-07 03:02:00,
2013-09-06 22:12:00,75.0,63.0,-100.00,South,185,6.0,7.0,66,0.00,,,-99.99,,2013-09-07 03:12:00,
2013-09-06 22:55:00,73.0,63.0,-100.00,South,185,4.0,7.0,71,0.00,,,-99.99,,2013-09-07 03:55:00,
2013-09-06 23:04:00,73.0,63.0,-100.00,South,185,4.0,7.0,71,0.00,,,-99.99,,2013-09-07 04:04:00,
2013-09-06 23:14:00,73.0,63.0,-100.00,South,185,4.0,7.0,71,0.00,,,-99.99,,2013-09-07 04:14:00,
2013-09-06 23:54:00,72.0,63.0,-100.00,South,185,3.0,7.0,74,0.00,,,-99.99,,2013-09-07 04:54:00,